Deepwater, Missouri
Current Conditions -  °F | °C
As of 3:15 PM on Thursday 23 Oct 2014 (Local Time) from KGLY Reporting Station
Haze Haze  
Wind Chill: 64°   Ceiling: 3900
Heat Index: 64°   Visibility: 4mi
Dew Point: 59°   Wind: 8mph
Humidity: 83%   Direction: 210°SSW
Pressure: 30.09"   Gusts: NA
Location:  38.26°N, 93.77°W
Report Text: KGLY 232015Z AUTO 21007KT 4SM HZ OVC039 18/15 A3009 RMK AO2
Loading
Personal Weather Stations






























Interactive Weather Map
Tropical Storm Tracking
New forecast layout! Learn more

10-Day Weather Forecast

Advertisements
Track Severe Weather on mobile